TimeEDT,TemperatureF,Dew PointF,Humidity,Sea Level PressureIn,VisibilityMPH,Wind Direction,Wind SpeedMPH,Gust SpeedMPH,PrecipitationIn,Events,Conditions,WindDirDegrees,DateUTC
12:51 AM,36.0,24.1,62,30.27,10.0,SSW,10.4,-,N/A,,Overcast,210,2014-03-28 04:51:00
1:51 AM,37.0,24.1,59,30.27,10.0,SSW,10.4,-,N/A,,Mostly Cloudy,210,2014-03-28 05:51:00
2:51 AM,37.0,24.1,59,30.25,10.0,SSW,10.4,-,N/A,,Scattered Clouds,210,2014-03-28 06:51:00
3:51 AM,37.0,25.0,62,30.22,10.0,South,8.1,-,N/A,,Clear,190,2014-03-28 07:51:00
4:51 AM,34.0,26.1,73,30.21,10.0,South,4.6,-,N/A,,Clear,190,2014-03-28 08:51:00
5:51 AM,35.1,28.0,76,30.20,10.0,Calm,Calm,-,N/A,,Mostly Cloudy,0,2014-03-28 09:51:00
6:51 AM,35.1,30.0,82,30.19,10.0,SSE,3.5,-,N/A,,Mostly Cloudy,160,2014-03-28 10:51:00
7:51 AM,39.0,33.1,79,30.19,10.0,South,8.1,-,N/A,,Mostly Cloudy,190,2014-03-28 11:51:00
8:51 AM,44.1,35.1,71,30.16,10.0,SSW,11.5,-,N/A,,Mostly Cloudy,200,2014-03-28 12:51:00
9:51 AM,51.1,39.0,63,30.13,10.0,SSW,12.7,-,N/A,,Mostly Cloudy,200,2014-03-28 13:51:00
10:51 AM,53.1,39.9,61,30.12,10.0,SW,24.2,34.5,N/A,,Overcast,220,2014-03-28 14:51:00
11:51 AM,55.0,41.0,59,30.09,10.0,SW,16.1,28.8,N/A,,Overcast,230,2014-03-28 15:51:00
12:51 PM,55.0,42.1,62,30.06,10.0,SW,20.7,27.6,N/A,,Overcast,230,2014-03-28 16:51:00
1:51 PM,55.0,41.0,59,30.05,10.0,SSW,26.5,34.5,N/A,,Mostly Cloudy,210,2014-03-28 17:51:00
2:51 PM,53.1,43.0,69,30.03,10.0,SSW,17.3,34.5,0.00,Rain,Light Rain,210,2014-03-28 18:51:00
2:58 PM,53.1,44.1,71,30.02,10.0,SSW,23.0,34.5,0.00,Rain,Light Rain,210,2014-03-28 18:58:00
3:06 PM,53.1,44.1,71,30.02,10.0,SW,17.3,33.4,0.00,,Overcast,220,2014-03-28 19:06:00
3:51 PM,54.0,44.1,69,30.01,10.0,SW,17.3,27.6,0.00,,Overcast,220,2014-03-28 19:51:00
4:51 PM,55.0,43.0,64,30.00,10.0,SW,16.1,26.5,N/A,,Overcast,220,2014-03-28 20:51:00
5:51 PM,52.0,46.0,80,30.01,6.0,SW,15.0,27.6,0.00,Rain,Light Rain,230,2014-03-28 21:51:00
6:51 PM,50.0,46.9,89,30.04,3.0,SW,13.8,-,0.03,Rain,Light Rain,220,2014-03-28 22:51:00
7:51 PM,48.9,46.0,90,30.03,10.0,South,9.2,-,0.03,,Mostly Cloudy,190,2014-03-28 23:51:00
8:51 PM,48.0,44.1,86,30.05,10.0,SW,9.2,-,N/A,,Mostly Cloudy,220,2014-03-29 00:51:00
9:51 PM,48.9,44.1,83,30.04,10.0,SW,9.2,-,N/A,,Mostly Cloudy,220,2014-03-29 01:51:00
10:51 PM,48.0,44.1,86,30.05,10.0,WNW,4.6,-,N/A,,Partly Cloudy,300,2014-03-29 02:51:00
11:51 PM,48.0,44.1,86,30.06,10.0,South,6.9,-,0.00,Rain,Light Rain,190,2014-03-29 03:51:00